sensor_id;sensor_type;location;lat;lon;timestamp;P1;durP1;ratioP1;P2;durP2;ratioP2
4915;SDS011;70796;52.406;13.230;2023-09-19T00:01:42;5.13;;;3.13;;
4915;SDS011;70796;52.406;13.230;2023-09-19T00:04:12;9.30;;;2.63;;
4915;SDS011;70796;52.406;13.230;2023-09-19T00:06:39;5.07;;;2.80;;
4915;SDS011;70796;52.406;13.230;2023-09-19T00:09:05;5.60;;;2.43;;
4915;SDS011;70796;52.406;13.230;2023-09-19T00:11:37;6.37;;;2.70;;
4915;SDS011;70796;52.406;13.230;2023-09-19T00:14:04;4.20;;;2.80;;
4915;SDS011;70796;52.406;13.230;2023-09-19T00:16:31;3.10;;;2.63;;
4915;SDS011;70796;52.406;13.230;2023-09-19T00:18:59;3.40;;;2.93;;
4915;SDS011;70796;52.406;13.230;2023-09-19T00:21:31;11.13;;;3.20;;
4915;SDS011;70796;52.406;13.230;2023-09-19T00:23:57;6.20;;;3.00;;
4915;SDS011;70796;52.406;13.230;2023-09-19T00:26:24;4.33;;;2.63;;
4915;SDS011;70796;52.406;13.230;2023-09-19T00:28:53;6.23;;;2.60;;
4915;SDS011;70796;52.406;13.230;2023-09-19T00:31:20;4.00;;;2.80;;
4915;SDS011;70796;52.406;13.230;2023-09-19T00:33:52;8.77;;;3.07;;
4915;SDS011;70796;52.406;13.230;2023-09-19T00:36:19;8.57;;;3.27;;
4915;SDS011;70796;52.406;13.230;2023-09-19T00:38:46;6.77;;;3.13;;
4915;SDS011;70796;52.406;13.230;2023-09-19T00:41:13;5.10;;;2.90;;
4915;SDS011;70796;52.406;13.230;2023-09-19T00:43:39;7.17;;;2.77;;
4915;SDS011;70796;52.406;13.230;2023-09-19T00:46:06;6.93;;;3.10;;
4915;SDS011;70796;52.406;13.230;2023-09-19T00:48:37;7.23;;;2.80;;
4915;SDS011;70796;52.406;13.230;2023-09-19T00:51:07;6.10;;;3.33;;
4915;SDS011;70796;52.406;13.230;2023-09-19T00:53:33;7.87;;;2.93;;
4915;SDS011;70796;52.406;13.230;2023-09-19T00:56:00;5.67;;;2.93;;
4915;SDS011;70796;52.406;13.230;2023-09-19T00:58:28;5.37;;;2.80;;
4915;SDS011;70796;52.406;13.230;2023-09-19T01:01:00;9.97;;;2.80;;
4915;SDS011;70796;52.406;13.230;2023-09-19T01:03:27;5.10;;;3.10;;
4915;SDS011;70796;52.406;13.230;2023-09-19T01:05:53;5.90;;;2.93;;
4915;SDS011;70796;52.406;13.230;2023-09-19T01:08:20;7.40;;;2.80;;
4915;SDS011;70796;52.406;13.230;2023-09-19T01:10:48;5.00;;;2.87;;
4915;SDS011;70796;52.406;13.230;2023-09-19T01:13:29;4.87;;;2.93;;
4915;SDS011;70796;52.406;13.230;2023-09-19T01:16:10;5.67;;;2.90;;
4915;SDS011;70796;52.406;13.230;2023-09-19T01:18:52;5.43;;;2.53;;
4915;SDS011;70796;52.406;13.230;2023-09-19T01:27:00;4.40;;;2.97;;
4915;SDS011;70796;52.406;13.230;2023-09-19T01:29:42;6.33;;;3.17;;
4915;SDS011;70796;52.406;13.230;2023-09-19T01:32:11;8.20;;;3.17;;
4915;SDS011;70796;52.406;13.230;2023-09-19T01:34:47;16.73;;;3.20;;
4915;SDS011;70796;52.406;13.230;2023-09-19T01:37:20;6.83;;;3.17;;
4915;SDS011;70796;52.406;13.230;2023-09-19T01:39:55;6.60;;;3.20;;
4915;SDS011;70796;52.406;13.230;2023-09-19T01:42:41;4.57;;;2.67;;
4915;SDS011;70796;52.406;13.230;2023-09-19T01:45:19;5.20;;;2.60;;
4915;SDS011;70796;52.406;13.230;2023-09-19T01:52:54;6.37;;;2.70;;
4915;SDS011;70796;52.406;13.230;2023-09-19T01:55:22;4.97;;;2.60;;
4915;SDS011;70796;52.406;13.230;2023-09-19T01:57:54;6.67;;;3.20;;
4915;SDS011;70796;52.406;13.230;2023-09-19T02:00:24;3.07;;;2.77;;
4915;SDS011;70796;52.406;13.230;2023-09-19T02:02:52;5.47;;;3.00;;
4915;SDS011;70796;52.406;13.230;2023-09-19T02:05:23;4.37;;;3.20;;
4915;SDS011;70796;52.406;13.230;2023-09-19T02:07:54;5.40;;;2.97;;
4915;SDS011;70796;52.406;13.230;2023-09-19T02:10:22;5.90;;;3.30;;
4915;SDS011;70796;52.406;13.230;2023-09-19T02:12:49;7.13;;;3.10;;
4915;SDS011;70796;52.406;13.230;2023-09-19T02:15:16;6.80;;;2.73;;
4915;SDS011;70796;52.406;13.230;2023-09-19T02:17:43;6.67;;;2.63;;
4915;SDS011;70796;52.406;13.230;2023-09-19T02:20:10;3.70;;;3.40;;
4915;SDS011;70796;52.406;13.230;2023-09-19T02:22:41;4.00;;;2.97;;
4915;SDS011;70796;52.406;13.230;2023-09-19T02:25:08;3.20;;;2.90;;
4915;SDS011;70796;52.406;13.230;2023-09-19T02:27:36;6.03;;;3.10;;
4915;SDS011;70796;52.406;13.230;2023-09-19T02:30:04;5.60;;;3.10;;
4915;SDS011;70796;52.406;13.230;2023-09-19T02:32:30;5.10;;;3.07;;
4915;SDS011;70796;52.406;13.230;2023-09-19T02:35:02;5.07;;;2.90;;
4915;SDS011;70796;52.406;13.230;2023-09-19T02:37:31;4.97;;;3.00;;
4915;SDS011;70796;52.406;13.230;2023-09-19T02:39:57;7.90;;;3.67;;
4915;SDS011;70796;52.406;13.230;2023-09-19T02:42:24;5.47;;;2.80;;
4915;SDS011;70796;52.406;13.230;2023-09-19T02:44:50;5.80;;;3.30;;
4915;SDS011;70796;52.406;13.230;2023-09-19T02:47:16;5.23;;;2.83;;
4915;SDS011;70796;52.406;13.230;2023-09-19T02:49:43;7.07;;;3.63;;
4915;SDS011;70796;52.406;13.230;2023-09-19T02:52:10;4.40;;;2.80;;
4915;SDS011;70796;52.406;13.230;2023-09-19T02:54:37;6.27;;;2.73;;
4915;SDS011;70796;52.406;13.230;2023-09-19T02:57:03;4.47;;;2.33;;
4915;SDS011;70796;52.406;13.230;2023-09-19T02:59:33;3.17;;;2.73;;
4915;SDS011;70796;52.406;13.230;2023-09-19T03:01:59;11.13;;;3.90;;
4915;SDS011;70796;52.406;13.230;2023-09-19T03:04:29;7.83;;;2.83;;
4915;SDS011;70796;52.406;13.230;2023-09-19T03:06:57;9.17;;;3.33;;
4915;SDS011;70796;52.406;13.230;2023-09-19T03:09:27;3.13;;;2.83;;
4915;SDS011;70796;52.406;13.230;2023-09-19T03:11:53;7.80;;;3.60;;
4915;SDS011;70796;52.406;13.230;2023-09-19T03:14:20;3.20;;;2.80;;
4915;SDS011;70796;52.406;13.230;2023-09-19T03:16:47;6.93;;;3.47;;
4915;SDS011;70796;52.406;13.230;2023-09-19T03:19:14;5.30;;;3.33;;
4915;SDS011;70796;52.406;13.230;2023-09-19T03:21:42;8.63;;;3.00;;
4915;SDS011;70796;52.406;13.230;2023-09-19T03:24:08;2.97;;;2.67;;
4915;SDS011;70796;52.406;13.230;2023-09-19T03:26:35;5.57;;;3.23;;
4915;SDS011;70796;52.406;13.230;2023-09-19T03:29:05;4.83;;;2.97;;
4915;SDS011;70796;52.406;13.230;2023-09-19T03:31:35;4.03;;;2.87;;
4915;SDS011;70796;52.406;13.230;2023-09-19T03:34:05;3.50;;;2.53;;
4915;SDS011;70796;52.406;13.230;2023-09-19T03:36:32;5.03;;;2.77;;
4915;SDS011;70796;52.406;13.230;2023-09-19T03:38:58;4.23;;;2.30;;
4915;SDS011;70796;52.406;13.230;2023-09-19T03:41:26;4.27;;;2.73;;
4915;SDS011;70796;52.406;13.230;2023-09-19T03:43:53;3.00;;;2.40;;
4915;SDS011;70796;52.406;13.230;2023-09-19T03:46:19;4.23;;;2.10;;
4915;SDS011;70796;52.406;13.230;2023-09-19T03:48:47;2.40;;;2.20;;
4915;SDS011;70796;52.406;13.230;2023-09-19T03:51:14;5.67;;;2.60;;
4915;SDS011;70796;52.406;13.230;2023-09-19T03:53:40;6.17;;;2.30;;
4915;SDS011;70796;52.406;13.230;2023-09-19T03:56:09;3.23;;;2.30;;
4915;SDS011;70796;52.406;13.230;2023-09-19T03:58:35;3.80;;;1.80;;
4915;SDS011;70796;52.406;13.230;2023-09-19T04:01:06;3.40;;;2.10;;
4915;SDS011;70796;52.406;13.230;2023-09-19T04:03:36;2.67;;;2.40;;
4915;SDS011;70796;52.406;13.230;2023-09-19T04:06:14;5.03;;;1.90;;
4915;SDS011;70796;52.406;13.230;2023-09-19T04:08:41;3.57;;;2.00;;
4915;SDS011;70796;52.406;13.230;2023-09-19T04:11:07;5.03;;;2.47;;
4915;SDS011;70796;52.406;13.230;2023-09-19T04:13:33;3.63;;;2.13;;
4915;SDS011;70796;52.406;13.230;2023-09-19T04:16:00;4.30;;;2.67;;
4915;SDS011;70796;52.406;13.230;2023-09-19T04:18:26;2.20;;;2.00;;
4915;SDS011;70796;52.406;13.230;2023-09-19T04:20:53;3.37;;;2.00;;
4915;SDS011;70796;52.406;13.230;2023-09-19T04:23:20;3.07;;;1.97;;
4915;SDS011;70796;52.406;13.230;2023-09-19T04:25:47;2.43;;;2.23;;
4915;SDS011;70796;52.406;13.230;2023-09-19T04:28:14;2.93;;;2.33;;
4915;SDS011;70796;52.406;13.230;2023-09-19T04:30:42;4.10;;;2.00;;
4915;SDS011;70796;52.406;13.230;2023-09-19T04:33:09;2.10;;;1.90;;
4915;SDS011;70796;52.406;13.230;2023-09-19T04:35:35;3.30;;;2.40;;
4915;SDS011;70796;52.406;13.230;2023-09-19T04:38:01;4.10;;;1.70;;
4915;SDS011;70796;52.406;13.230;2023-09-19T04:40:29;3.03;;;1.80;;
4915;SDS011;70796;52.406;13.230;2023-09-19T04:42:56;3.90;;;2.13;;
4915;SDS011;70796;52.406;13.230;2023-09-19T04:45:24;5.70;;;2.17;;
4915;SDS011;70796;52.406;13.230;2023-09-19T04:47:51;2.80;;;1.93;;
4915;SDS011;70796;52.406;13.230;2023-09-19T04:50:17;4.30;;;1.90;;
4915;SDS011;70796;52.406;13.230;2023-09-19T04:52:44;5.57;;;2.10;;
4915;SDS011;70796;52.406;13.230;2023-09-19T04:55:14;4.00;;;2.10;;
4915;SDS011;70796;52.406;13.230;2023-09-19T04:57:45;3.93;;;2.00;;
4915;SDS011;70796;52.406;13.230;2023-09-19T05:00:16;3.43;;;2.27;;
4915;SDS011;70796;52.406;13.230;2023-09-19T05:02:46;2.90;;;1.90;;
4915;SDS011;70796;52.406;13.230;2023-09-19T05:05:15;2.30;;;2.10;;
4915;SDS011;70796;52.406;13.230;2023-09-19T05:07:43;5.80;;;1.87;;
4915;SDS011;70796;52.406;13.230;2023-09-19T05:10:14;5.20;;;2.57;;
4915;SDS011;70796;52.406;13.230;2023-09-19T05:12:41;4.27;;;2.10;;
4915;SDS011;70796;52.406;13.230;2023-09-19T05:15:08;4.20;;;2.07;;
4915;SDS011;70796;52.406;13.230;2023-09-19T05:17:34;8.90;;;2.03;;
4915;SDS011;70796;52.406;13.230;2023-09-19T05:20:01;5.27;;;2.50;;
4915;SDS011;70796;52.406;13.230;2023-09-19T05:22:41;2.80;;;1.80;;
4915;SDS011;70796;52.406;13.230;2023-09-19T05:25:09;4.93;;;1.83;;
4915;SDS011;70796;52.406;13.230;2023-09-19T05:27:37;3.43;;;2.00;;
4915;SDS011;70796;52.406;13.230;2023-09-19T05:30:05;2.23;;;2.00;;
4915;SDS011;70796;52.406;13.230;2023-09-19T05:32:31;4.00;;;1.63;;
4915;SDS011;70796;52.406;13.230;2023-09-19T05:34:57;4.70;;;2.10;;
4915;SDS011;70796;52.406;13.230;2023-09-19T05:37:25;3.67;;;2.30;;
4915;SDS011;70796;52.406;13.230;2023-09-19T05:39:52;3.47;;;1.87;;
4915;SDS011;70796;52.406;13.230;2023-09-19T05:42:23;3.37;;;1.80;;
4915;SDS011;70796;52.406;13.230;2023-09-19T05:44:49;3.20;;;2.40;;
4915;SDS011;70796;52.406;13.230;2023-09-19T05:47:16;3.20;;;1.93;;
4915;SDS011;70796;52.406;13.230;2023-09-19T05:49:42;3.70;;;2.00;;
4915;SDS011;70796;52.406;13.230;2023-09-19T05:52:09;5.40;;;2.60;;
4915;SDS011;70796;52.406;13.230;2023-09-19T05:54:36;4.10;;;2.03;;
4915;SDS011;70796;52.406;13.230;2023-09-19T05:57:03;3.87;;;2.10;;
4915;SDS011;70796;52.406;13.230;2023-09-19T05:59:30;4.60;;;2.10;;
4915;SDS011;70796;52.406;13.230;2023-09-19T06:01:56;3.20;;;2.70;;
4915;SDS011;70796;52.406;13.230;2023-09-19T06:04:23;3.10;;;2.23;;
4915;SDS011;70796;52.406;13.230;2023-09-19T06:06:49;3.63;;;2.20;;
4915;SDS011;70796;52.406;13.230;2023-09-19T06:09:16;6.17;;;2.10;;
4915;SDS011;70796;52.406;13.230;2023-09-19T06:11:43;2.80;;;2.03;;
4915;SDS011;70796;52.406;13.230;2023-09-19T06:14:09;4.33;;;2.50;;
4915;SDS011;70796;52.406;13.230;2023-09-19T06:16:36;5.33;;;2.00;;
4915;SDS011;70796;52.406;13.230;2023-09-19T06:19:04;4.83;;;2.10;;
4915;SDS011;70796;52.406;13.230;2023-09-19T06:21:35;2.33;;;1.70;;
4915;SDS011;70796;52.406;13.230;2023-09-19T06:24:02;3.20;;;2.10;;
4915;SDS011;70796;52.406;13.230;2023-09-19T06:26:29;4.27;;;2.00;;
4915;SDS011;70796;52.406;13.230;2023-09-19T06:28:57;3.60;;;1.90;;
4915;SDS011;70796;52.406;13.230;2023-09-19T06:31:23;2.93;;;2.00;;
4915;SDS011;70796;52.406;13.230;2023-09-19T06:33:52;4.87;;;2.33;;
4915;SDS011;70796;52.406;13.230;2023-09-19T06:36:19;4.47;;;2.03;;
4915;SDS011;70796;52.406;13.230;2023-09-19T06:38:46;7.20;;;2.47;;
4915;SDS011;70796;52.406;13.230;2023-09-19T06:41:13;6.73;;;2.03;;
4915;SDS011;70796;52.406;13.230;2023-09-19T06:43:42;4.10;;;2.10;;
4915;SDS011;70796;52.406;13.230;2023-09-19T06:46:09;4.13;;;2.10;;
4915;SDS011;70796;52.406;13.230;2023-09-19T06:48:36;4.73;;;2.20;;
4915;SDS011;70796;52.406;13.230;2023-09-19T06:51:02;6.50;;;2.10;;
4915;SDS011;70796;52.406;13.230;2023-09-19T06:53:34;3.70;;;2.17;;
4915;SDS011;70796;52.406;13.230;2023-09-19T06:56:02;5.60;;;2.30;;
4915;SDS011;70796;52.406;13.230;2023-09-19T06:58:29;6.00;;;2.17;;
4915;SDS011;70796;52.406;13.230;2023-09-19T07:00:55;3.87;;;2.17;;
4915;SDS011;70796;52.406;13.230;2023-09-19T07:03:23;3.30;;;2.00;;
4915;SDS011;70796;52.406;13.230;2023-09-19T07:05:53;5.67;;;2.40;;
4915;SDS011;70796;52.406;13.230;2023-09-19T07:08:22;7.53;;;2.10;;
4915;SDS011;70796;52.406;13.230;2023-09-19T07:10:48;4.73;;;1.70;;
4915;SDS011;70796;52.406;13.230;2023-09-19T07:13:15;4.40;;;2.37;;
4915;SDS011;70796;52.406;13.230;2023-09-19T07:15:45;2.30;;;1.70;;
4915;SDS011;70796;52.406;13.230;2023-09-19T07:18:17;5.07;;;2.33;;
4915;SDS011;70796;52.406;13.230;2023-09-19T07:20:44;2.83;;;2.53;;
4915;SDS011;70796;52.406;13.230;2023-09-19T07:23:17;2.87;;;2.27;;
4915;SDS011;70796;52.406;13.230;2023-09-19T07:25:44;18.17;;;2.80;;
4915;SDS011;70796;52.406;13.230;2023-09-19T07:28:14;4.10;;;2.40;;
4915;SDS011;70796;52.406;13.230;2023-09-19T07:30:40;6.87;;;2.87;;
4915;SDS011;70796;52.406;13.230;2023-09-19T07:33:10;6.20;;;2.80;;
4915;SDS011;70796;52.406;13.230;2023-09-19T07:35:38;5.90;;;2.67;;
4915;SDS011;70796;52.406;13.230;2023-09-19T07:38:07;5.17;;;2.47;;
4915;SDS011;70796;52.406;13.230;2023-09-19T07:40:34;4.40;;;2.23;;
4915;SDS011;70796;52.406;13.230;2023-09-19T07:43:01;8.10;;;2.80;;
4915;SDS011;70796;52.406;13.230;2023-09-19T07:45:28;11.20;;;2.40;;
4915;SDS011;70796;52.406;13.230;2023-09-19T07:47:56;5.70;;;2.40;;
4915;SDS011;70796;52.406;13.230;2023-09-19T07:50:23;3.90;;;2.40;;
4915;SDS011;70796;52.406;13.230;2023-09-19T07:52:54;7.83;;;2.53;;
4915;SDS011;70796;52.406;13.230;2023-09-19T07:55:22;7.13;;;2.30;;
4915;SDS011;70796;52.406;13.230;2023-09-19T07:57:52;3.37;;;2.50;;
4915;SDS011;70796;52.406;13.230;2023-09-19T08:00:18;4.67;;;2.60;;
4915;SDS011;70796;52.406;13.230;2023-09-19T08:02:47;7.97;;;2.60;;
4915;SDS011;70796;52.406;13.230;2023-09-19T08:05:25;4.37;;;2.50;;
4915;SDS011;70796;52.406;13.230;2023-09-19T08:07:52;4.50;;;2.60;;
4915;SDS011;70796;52.406;13.230;2023-09-19T08:10:23;4.07;;;2.70;;
4915;SDS011;70796;52.406;13.230;2023-09-19T08:12:54;2.47;;;2.23;;
4915;SDS011;70796;52.406;13.230;2023-09-19T08:15:26;7.30;;;2.90;;
4915;SDS011;70796;52.406;13.230;2023-09-19T08:17:53;5.90;;;2.63;;
4915;SDS011;70796;52.406;13.230;2023-09-19T08:20:20;4.17;;;2.60;;
4915;SDS011;70796;52.406;13.230;2023-09-19T08:22:47;5.50;;;2.60;;
4915;SDS011;70796;52.406;13.230;2023-09-19T08:25:14;6.87;;;2.93;;
4915;SDS011;70796;52.406;13.230;2023-09-19T08:27:45;6.50;;;2.70;;
4915;SDS011;70796;52.406;13.230;2023-09-19T08:30:16;3.70;;;2.50;;
4915;SDS011;70796;52.406;13.230;2023-09-19T08:32:44;6.47;;;2.73;;
4915;SDS011;70796;52.406;13.230;2023-09-19T08:35:12;6.60;;;2.50;;
4915;SDS011;70796;52.406;13.230;2023-09-19T08:37:39;6.70;;;2.87;;
4915;SDS011;70796;52.406;13.230;2023-09-19T08:40:06;5.37;;;2.30;;
4915;SDS011;70796;52.406;13.230;2023-09-19T08:42:51;6.00;;;2.63;;
4915;SDS011;70796;52.406;13.230;2023-09-19T08:45:23;3.70;;;2.50;;
4915;SDS011;70796;52.406;13.230;2023-09-19T08:47:53;5.20;;;2.73;;
4915;SDS011;70796;52.406;13.230;2023-09-19T08:50:24;5.23;;;2.80;;
4915;SDS011;70796;52.406;13.230;2023-09-19T08:52:52;5.30;;;2.90;;
4915;SDS011;70796;52.406;13.230;2023-09-19T08:55:23;5.47;;;2.70;;
4915;SDS011;70796;52.406;13.230;2023-09-19T08:58:02;4.77;;;2.53;;
4915;SDS011;70796;52.406;13.230;2023-09-19T09:00:29;6.30;;;2.80;;
4915;SDS011;70796;52.406;13.230;2023-09-19T09:02:56;6.50;;;2.73;;
4915;SDS011;70796;52.406;13.230;2023-09-19T09:05:24;7.30;;;2.73;;
4915;SDS011;70796;52.406;13.230;2023-09-19T09:07:52;4.20;;;2.63;;
4915;SDS011;70796;52.406;13.230;2023-09-19T09:10:21;8.40;;;3.40;;
4915;SDS011;70796;52.406;13.230;2023-09-19T09:12:51;5.17;;;2.60;;
4915;SDS011;70796;52.406;13.230;2023-09-19T09:15:21;6.70;;;3.20;;
4915;SDS011;70796;52.406;13.230;2023-09-19T09:17:53;7.73;;;2.60;;
4915;SDS011;70796;52.406;13.230;2023-09-19T09:20:20;13.27;;;3.43;;
4915;SDS011;70796;52.406;13.230;2023-09-19T09:22:50;4.77;;;2.67;;
4915;SDS011;70796;52.406;13.230;2023-09-19T09:25:19;9.40;;;2.87;;
4915;SDS011;70796;52.406;13.230;2023-09-19T09:28:07;6.53;;;2.67;;
4915;SDS011;70796;52.406;13.230;2023-09-19T09:30:34;9.70;;;2.87;;
4915;SDS011;70796;52.406;13.230;2023-09-19T09:33:07;3.77;;;2.27;;
4915;SDS011;70796;52.406;13.230;2023-09-19T09:35:53;5.77;;;2.63;;
4915;SDS011;70796;52.406;13.230;2023-09-19T09:38:23;8.00;;;2.67;;
4915;SDS011;70796;52.406;13.230;2023-09-19T09:40:59;8.70;;;3.20;;
4915;SDS011;70796;52.406;13.230;2023-09-19T09:43:34;5.40;;;2.70;;
4915;SDS011;70796;52.406;13.230;2023-09-19T09:46:06;8.57;;;2.87;;
4915;SDS011;70796;52.406;13.230;2023-09-19T09:48:58;7.20;;;2.70;;
4915;SDS011;70796;52.406;13.230;2023-09-19T09:51:44;5.67;;;2.80;;
4915;SDS011;70796;52.406;13.230;2023-09-19T09:54:24;8.17;;;2.80;;
4915;SDS011;70796;52.406;13.230;2023-09-19T09:56:53;3.40;;;2.10;;
4915;SDS011;70796;52.406;13.230;2023-09-19T09:59:21;6.63;;;2.90;;
4915;SDS011;70796;52.406;13.230;2023-09-19T10:01:50;5.60;;;2.43;;
4915;SDS011;70796;52.406;13.230;2023-09-19T10:04:29;6.97;;;2.33;;
4915;SDS011;70796;52.406;13.230;2023-09-19T10:07:03;6.40;;;2.83;;
4915;SDS011;70796;52.406;13.230;2023-09-19T10:09:45;6.03;;;2.43;;
4915;SDS011;70796;52.406;13.230;2023-09-19T10:12:13;6.90;;;2.50;;
4915;SDS011;70796;52.406;13.230;2023-09-19T10:14:42;12.33;;;2.87;;
4915;SDS011;70796;52.406;13.230;2023-09-19T10:17:10;7.50;;;2.57;;
4915;SDS011;70796;52.406;13.230;2023-09-19T10:19:39;6.33;;;2.53;;
4915;SDS011;70796;52.406;13.230;2023-09-19T10:22:13;9.87;;;3.33;;
4915;SDS011;70796;52.406;13.230;2023-09-19T10:24:47;5.50;;;2.97;;
4915;SDS011;70796;52.406;13.230;2023-09-19T10:27:28;6.60;;;2.87;;
4915;SDS011;70796;52.406;13.230;2023-09-19T10:29:58;7.57;;;2.97;;
4915;SDS011;70796;52.406;13.230;2023-09-19T10:32:26;6.83;;;2.70;;
4915;SDS011;70796;52.406;13.230;2023-09-19T10:34:54;5.03;;;2.77;;
4915;SDS011;70796;52.406;13.230;2023-09-19T10:37:22;9.80;;;3.10;;
4915;SDS011;70796;52.406;13.230;2023-09-19T10:39:55;7.77;;;3.43;;
4915;SDS011;70796;52.406;13.230;2023-09-19T10:42:25;8.17;;;3.03;;
4915;SDS011;70796;52.406;13.230;2023-09-19T10:44:55;6.43;;;3.10;;
4915;SDS011;70796;52.406;13.230;2023-09-19T10:47:27;6.80;;;2.90;;
4915;SDS011;70796;52.406;13.230;2023-09-19T10:49:53;5.83;;;2.50;;
4915;SDS011;70796;52.406;13.230;2023-09-19T10:52:22;7.00;;;3.00;;
4915;SDS011;70796;52.406;13.230;2023-09-19T10:54:50;5.70;;;2.13;;
4915;SDS011;70796;52.406;13.230;2023-09-19T10:57:19;7.30;;;3.17;;
4915;SDS011;70796;52.406;13.230;2023-09-19T11:00:08;9.30;;;3.17;;
4915;SDS011;70796;52.406;13.230;2023-09-19T11:05:39;7.33;;;2.60;;
4915;SDS011;70796;52.406;13.230;2023-09-19T11:08:07;6.57;;;2.60;;
4915;SDS011;70796;52.406;13.230;2023-09-19T11:10:55;8.33;;;2.70;;
4915;SDS011;70796;52.406;13.230;2023-09-19T11:13:28;8.30;;;2.70;;
4915;SDS011;70796;52.406;13.230;2023-09-19T11:26:48;6.00;;;2.30;;
4915;SDS011;70796;52.406;13.230;2023-09-19T11:29:24;4.47;;;2.07;;
4915;SDS011;70796;52.406;13.230;2023-09-19T11:31:55;9.57;;;2.20;;
4915;SDS011;70796;52.406;13.230;2023-09-19T11:37:02;5.93;;;2.30;;
4915;SDS011;70796;52.406;13.230;2023-09-19T11:39:33;5.80;;;2.77;;
4915;SDS011;70796;52.406;13.230;2023-09-19T11:41:59;4.50;;;2.07;;
4915;SDS011;70796;52.406;13.230;2023-09-19T11:44:33;5.37;;;2.60;;
4915;SDS011;70796;52.406;13.230;2023-09-19T11:47:02;4.73;;;1.80;;
4915;SDS011;70796;52.406;13.230;2023-09-19T11:49:30;4.37;;;2.50;;
4915;SDS011;70796;52.406;13.230;2023-09-19T11:51:58;4.57;;;2.30;;
4915;SDS011;70796;52.406;13.230;2023-09-19T11:54:31;3.73;;;2.13;;
4915;SDS011;70796;52.406;13.230;2023-09-19T11:57:00;5.90;;;2.13;;
4915;SDS011;70796;52.406;13.230;2023-09-19T11:59:28;4.30;;;2.00;;
4915;SDS011;70796;52.406;13.230;2023-09-19T12:02:00;2.77;;;1.90;;
4915;SDS011;70796;52.406;13.230;2023-09-19T12:04:37;6.70;;;2.43;;
4915;SDS011;70796;52.406;13.230;2023-09-19T12:07:08;7.90;;;2.50;;
4915;SDS011;70796;52.406;13.230;2023-09-19T12:12:20;4.33;;;1.80;;
4915;SDS011;70796;52.406;13.230;2023-09-19T12:14:49;8.50;;;1.90;;
4915;SDS011;70796;52.406;13.230;2023-09-19T12:17:17;6.60;;;2.23;;
4915;SDS011;70796;52.406;13.230;2023-09-19T12:19:53;6.63;;;1.90;;
4915;SDS011;70796;52.406;13.230;2023-09-19T12:22:20;6.50;;;2.30;;
4915;SDS011;70796;52.406;13.230;2023-09-19T12:24:47;6.10;;;1.77;;
4915;SDS011;70796;52.406;13.230;2023-09-19T12:27:14;3.17;;;1.63;;
4915;SDS011;70796;52.406;13.230;2023-09-19T12:29:50;4.47;;;1.90;;
4915;SDS011;70796;52.406;13.230;2023-09-19T12:32:17;11.50;;;2.30;;
4915;SDS011;70796;52.406;13.230;2023-09-19T12:34:52;6.00;;;2.10;;
4915;SDS011;70796;52.406;13.230;2023-09-19T12:37:21;5.70;;;2.00;;
4915;SDS011;70796;52.406;13.230;2023-09-19T12:39:49;5.97;;;1.90;;
4915;SDS011;70796;52.406;13.230;2023-09-19T12:42:19;3.50;;;1.60;;
4915;SDS011;70796;52.406;13.230;2023-09-19T12:44:46;4.73;;;2.03;;
4915;SDS011;70796;52.406;13.230;2023-09-19T12:47:15;5.43;;;2.00;;
4915;SDS011;70796;52.406;13.230;2023-09-19T12:52:36;7.07;;;1.63;;
4915;SDS011;70796;52.406;13.230;2023-09-19T12:55:03;5.80;;;2.03;;
4915;SDS011;70796;52.406;13.230;2023-09-19T12:57:31;5.03;;;2.00;;
4915;SDS011;70796;52.406;13.230;2023-09-19T13:00:01;2.60;;;1.67;;
4915;SDS011;70796;52.406;13.230;2023-09-19T13:02:28;3.30;;;1.60;;
4915;SDS011;70796;52.406;13.230;2023-09-19T13:04:55;5.47;;;1.70;;
4915;SDS011;70796;52.406;13.230;2023-09-19T13:07:39;6.60;;;2.00;;
4915;SDS011;70796;52.406;13.230;2023-09-19T13:10:07;5.27;;;2.00;;
4915;SDS011;70796;52.406;13.230;2023-09-19T13:12:35;2.43;;;1.77;;
4915;SDS011;70796;52.406;13.230;2023-09-19T13:15:15;5.07;;;2.07;;
4915;SDS011;70796;52.406;13.230;2023-09-19T13:17:49;3.10;;;1.87;;
4915;SDS011;70796;52.406;13.230;2023-09-19T13:20:24;4.07;;;1.67;;
4915;SDS011;70796;52.406;13.230;2023-09-19T13:22:53;3.33;;;1.87;;
4915;SDS011;70796;52.406;13.230;2023-09-19T13:25:21;5.90;;;1.73;;
4915;SDS011;70796;52.406;13.230;2023-09-19T13:27:49;6.60;;;1.67;;
4915;SDS011;70796;52.406;13.230;2023-09-19T13:30:22;6.53;;;2.50;;
4915;SDS011;70796;52.406;13.230;2023-09-19T13:32:48;5.90;;;2.27;;
4915;SDS011;70796;52.406;13.230;2023-09-19T13:35:15;3.33;;;2.00;;
4915;SDS011;70796;52.406;13.230;2023-09-19T13:37:42;5.83;;;1.70;;
4915;SDS011;70796;52.406;13.230;2023-09-19T13:40:13;3.23;;;1.80;;
4915;SDS011;70796;52.406;13.230;2023-09-19T13:42:40;4.30;;;1.83;;
4915;SDS011;70796;52.406;13.230;2023-09-19T13:45:07;3.10;;;2.07;;
4915;SDS011;70796;52.406;13.230;2023-09-19T13:47:34;8.77;;;2.10;;
4915;SDS011;70796;52.406;13.230;2023-09-19T13:50:03;5.53;;;2.40;;
4915;SDS011;70796;52.406;13.230;2023-09-19T13:52:31;3.43;;;2.37;;
4915;SDS011;70796;52.406;13.230;2023-09-19T13:55:00;4.20;;;1.83;;
4915;SDS011;70796;52.406;13.230;2023-09-19T13:57:27;11.80;;;1.93;;
4915;SDS011;70796;52.406;13.230;2023-09-19T13:59:53;5.60;;;2.20;;
4915;SDS011;70796;52.406;13.230;2023-09-19T14:02:21;2.20;;;1.50;;
4915;SDS011;70796;52.406;13.230;2023-09-19T14:04:51;3.80;;;1.70;;
4915;SDS011;70796;52.406;13.230;2023-09-19T14:07:17;3.53;;;1.93;;
4915;SDS011;70796;52.406;13.230;2023-09-19T14:09:46;4.43;;;1.60;;
4915;SDS011;70796;52.406;13.230;2023-09-19T14:12:13;2.87;;;1.93;;
4915;SDS011;70796;52.406;13.230;2023-09-19T14:14:40;3.60;;;2.03;;
4915;SDS011;70796;52.406;13.230;2023-09-19T14:17:07;5.67;;;2.27;;
4915;SDS011;70796;52.406;13.230;2023-09-19T14:19:33;5.80;;;2.20;;
4915;SDS011;70796;52.406;13.230;2023-09-19T14:22:01;3.93;;;2.20;;
4915;SDS011;70796;52.406;13.230;2023-09-19T14:24:34;6.63;;;2.60;;
4915;SDS011;70796;52.406;13.230;2023-09-19T14:27:01;6.67;;;2.07;;
4915;SDS011;70796;52.406;13.230;2023-09-19T14:29:30;3.87;;;1.90;;
4915;SDS011;70796;52.406;13.230;2023-09-19T14:31:56;3.70;;;1.73;;
4915;SDS011;70796;52.406;13.230;2023-09-19T14:34:25;3.73;;;2.03;;
4915;SDS011;70796;52.406;13.230;2023-09-19T14:36:52;5.43;;;2.07;;
4915;SDS011;70796;52.406;13.230;2023-09-19T14:39:20;5.93;;;1.87;;
4915;SDS011;70796;52.406;13.230;2023-09-19T14:41:48;4.30;;;1.73;;
4915;SDS011;70796;52.406;13.230;2023-09-19T14:44:14;3.20;;;1.80;;
4915;SDS011;70796;52.406;13.230;2023-09-19T14:46:42;4.13;;;2.03;;
4915;SDS011;70796;52.406;13.230;2023-09-19T14:49:11;4.90;;;2.37;;
4915;SDS011;70796;52.406;13.230;2023-09-19T14:51:39;3.80;;;1.83;;
4915;SDS011;70796;52.406;13.230;2023-09-19T14:54:10;5.70;;;2.27;;
4915;SDS011;70796;52.406;13.230;2023-09-19T14:56:37;3.57;;;2.20;;
4915;SDS011;70796;52.406;13.230;2023-09-19T14:59:03;4.17;;;2.27;;
4915;SDS011;70796;52.406;13.230;2023-09-19T15:01:30;4.17;;;2.30;;
4915;SDS011;70796;52.406;13.230;2023-09-19T15:03:58;4.37;;;1.93;;
4915;SDS011;70796;52.406;13.230;2023-09-19T15:06:27;4.90;;;2.00;;
4915;SDS011;70796;52.406;13.230;2023-09-19T15:08:54;5.30;;;1.93;;
4915;SDS011;70796;52.406;13.230;2023-09-19T15:11:20;5.50;;;2.07;;
4915;SDS011;70796;52.406;13.230;2023-09-19T15:13:47;3.50;;;2.00;;
4915;SDS011;70796;52.406;13.230;2023-09-19T15:16:15;6.43;;;2.37;;
4915;SDS011;70796;52.406;13.230;2023-09-19T15:18:43;4.93;;;2.30;;
4915;SDS011;70796;52.406;13.230;2023-09-19T15:21:11;7.33;;;2.10;;
4915;SDS011;70796;52.406;13.230;2023-09-19T15:23:38;6.80;;;3.57;;
4915;SDS011;70796;52.406;13.230;2023-09-19T15:26:05;8.00;;;4.10;;
4915;SDS011;70796;52.406;13.230;2023-09-19T15:28:32;9.00;;;3.20;;
4915;SDS011;70796;52.406;13.230;2023-09-19T15:33:30;5.80;;;3.90;;
4915;SDS011;70796;52.406;13.230;2023-09-19T15:38:29;8.57;;;4.30;;